Time;durP1;ratioP1;P1;durP2;ratioP2;P2;SDS_P1;SDS_P2;PMS_P1;PMS_P2;Temp;Humidity;BMP_temperature;BMP_pressure;BME280_temperature;BME280_humidity;BME280_pressure;Samples;Min_cycle;Max_cycle;Signal;HPM_P1;HPM_P2
2023/03/09 00:00:54;;;;;;;9.97;6.60;;;0.10;62.50;;;;;;5035485;28;20194;-68
2023/03/09 00:03:20;;;;;;;11.33;7.40;;;0.10;61.10;;;;;;5035321;28;20587;-73
2023/03/09 00:05:55;;;;;;;8.63;7.15;;;0.10;61.50;;;;;;5030448;28;20687;-73
2023/03/09 00:08:21;;;;;;;10.48;7.82;;;0.00;60.20;;;;;;5036159;28;20405;-71
2023/03/09 00:10:51;;;;;;;11.70;8.18;;;0.00;59.70;;;;;;5041310;28;20175;-67
2023/03/09 00:13:17;;;;;;;10.30;8.18;;;0.00;57.80;;;;;;5038701;28;20755;-66
2023/03/09 00:15:44;;;;;;;9.95;7.85;;;0.00;57.20;;;;;;5051577;28;20201;-68
2023/03/09 00:18:10;;;;;;;10.80;7.53;;;-0.10;57.70;;;;;;5048751;28;20604;-73
2023/03/09 00:20:37;;;;;;;12.03;7.53;;;-0.10;58.60;;;;;;5053211;28;20253;-67
2023/03/09 00:23:08;;;;;;;10.20;8.15;;;-0.10;56.20;;;;;;5053248;28;20179;-68
2023/03/09 00:25:34;;;;;;;11.77;7.53;;;-0.20;55.60;;;;;;5052490;28;20201;-67
2023/03/09 00:28:00;;;;;;;13.15;7.65;;;-0.20;51.20;;;;;;5052264;28;20179;-73
2023/03/09 00:30:26;;;;;;;9.80;7.37;;;-0.20;51.70;;;;;;5053043;28;20543;-72
2023/03/09 00:32:53;;;;;;;12.67;7.80;;;-0.30;50.70;;;;;;5051605;28;20608;-68
2023/03/09 00:35:19;;;;;;;12.85;8.60;;;-0.30;51.10;;;;;;5052094;28;20194;-67
2023/03/09 00:37:46;;;;;;;14.68;8.20;;;-0.30;51.10;;;;;;5051908;28;20175;-67
2023/03/09 00:40:14;;;;;;;11.63;7.15;;;-0.30;51.70;;;;;;5053144;28;20164;-67
2023/03/09 00:42:43;;;;;;;13.00;7.43;;;-0.30;53.40;;;;;;5052992;28;20170;-67
2023/03/09 00:45:10;;;;;;;8.38;6.63;;;-0.30;56.90;;;;;;5037002;28;20537;-73
2023/03/09 00:47:35;;;;;;;9.40;7.40;;;-0.30;56.20;;;;;;5031944;28;20187;-73
2023/03/09 00:50:01;;;;;;;12.90;8.10;;;-0.30;55.70;;;;;;5038419;28;20228;-72
2023/03/09 00:52:27;;;;;;;12.63;6.97;;;-0.30;59.70;;;;;;5038298;28;20198;-67
2023/03/09 00:54:53;;;;;;;6.87;5.40;;;-0.30;60.20;;;;;;5050847;28;20425;-73
2023/03/09 00:57:23;;;;;;;12.77;7.90;;;-0.30;62.10;;;;;;5045187;28;20476;-67
2023/03/09 00:59:50;;;;;;;12.30;7.05;;;-0.30;63.50;;;;;;5038116;28;21596;-72
2023/03/09 01:02:18;;;;;;;8.48;6.82;;;-0.30;64.20;;;;;;5037650;28;20179;-67
2023/03/09 01:04:46;;;;;;;8.43;6.95;;;-0.30;65.40;;;;;;5035792;28;20175;-67
2023/03/09 01:07:12;;;;;;;10.95;6.70;;;-0.30;64.30;;;;;;5038384;28;20594;-73
2023/03/09 01:09:38;;;;;;;10.02;6.57;;;-0.40;64.80;;;;;;5040893;28;20570;-66
2023/03/09 01:12:05;;;;;;;7.30;6.27;;;-0.40;65.50;;;;;;5035471;28;20206;-66
2023/03/09 01:14:30;;;;;;;7.72;6.20;;;-0.40;67.40;;;;;;5036947;28;20180;-66
2023/03/09 01:16:56;;;;;;;11.40;7.03;;;-0.40;63.80;;;;;;5050086;28;20213;-67
2023/03/09 01:19:22;;;;;;;10.70;6.33;;;-0.40;63.30;;;;;;5036975;28;20171;-72
2023/03/09 01:21:47;;;;;;;7.50;6.70;;;-0.40;62.00;;;;;;5052645;28;20221;-73
2023/03/09 01:24:13;;;;;;;9.63;6.97;;;-0.50;63.60;;;;;;5053993;28;20194;-66
2023/03/09 01:26:39;;;;;;;19.37;7.57;;;-0.50;62.60;;;;;;5055891;28;20214;-66
2023/03/09 01:29:04;;;;;;;9.50;7.00;;;-0.50;62.50;;;;;;5054698;28;20644;-67
2023/03/09 01:31:30;;;;;;;10.77;7.10;;;-0.60;59.80;;;;;;5052535;28;20168;-73
2023/03/09 01:33:56;;;;;;;11.40;7.53;;;-0.60;61.10;;;;;;5036498;28;20297;-73
2023/03/09 01:36:21;;;;;;;7.63;6.90;;;-0.60;60.90;;;;;;5035427;28;20199;-68
2023/03/09 01:38:47;;;;;;;8.57;6.97;;;-0.60;61.30;;;;;;5035728;28;20214;-66
2023/03/09 01:41:14;;;;;;;9.05;6.15;;;-0.60;62.10;;;;;;5036586;28;20525;-67
2023/03/09 01:43:46;;;;;;;8.88;7.65;;;-0.60;61.20;;;;;;5035009;28;20541;-67
2023/03/09 01:46:33;;;;;;;7.80;6.47;;;-0.60;61.60;;;;;;5037417;28;20237;-67
2023/03/09 01:49:08;;;;;;;7.35;6.65;;;-0.60;62.50;;;;;;5038723;28;20188;-67
2023/03/09 01:51:37;;;;;;;8.90;7.43;;;-0.70;60.80;;;;;;5049860;28;20189;-66
2023/03/09 01:54:06;;;;;;;8.23;5.80;;;-0.60;58.70;;;;;;5041568;28;20179;-72
2023/03/09 01:56:33;;;;;;;7.75;6.10;;;-0.60;58.70;;;;;;5050081;28;20202;-72
2023/03/09 01:59:02;;;;;;;12.50;7.20;;;-0.70;57.20;;;;;;5036748;28;20505;-67
2023/03/09 02:01:28;;;;;;;9.40;7.22;;;-0.70;57.40;;;;;;5042014;28;20179;-72
2023/03/09 02:04:04;;;;;;;6.87;5.47;;;-0.70;58.80;;;;;;5033129;28;22102;-67
2023/03/09 02:06:30;;;;;;;8.43;6.82;;;-0.70;59.50;;;;;;5040362;28;20503;-73
2023/03/09 02:09:20;;;;;;;7.22;6.63;;;-0.70;59.70;;;;;;5040647;28;20167;-66
2023/03/09 02:11:46;;;;;;;8.65;7.05;;;-0.70;58.30;;;;;;5040958;28;20207;-70
2023/03/09 02:14:14;;;;;;;11.05;6.80;;;-0.80;56.90;;;;;;5055506;28;20182;-67
2023/03/09 02:16:39;;;;;;;9.00;7.60;;;-0.80;57.40;;;;;;5038974;28;20194;-71
2023/03/09 02:19:11;;;;;;;10.73;7.07;;;-0.80;57.10;;;;;;5039704;28;20186;-73
2023/03/09 02:21:49;;;;;;;14.10;7.05;;;-0.80;57.20;;;;;;5045626;28;20187;-68
2023/03/09 02:25:02;;;;;;;11.00;6.63;;;-0.80;59.80;;;;;;5038847;28;20187;-71
2023/03/09 02:27:29;;;;;;;7.75;6.95;;;-0.80;59.60;;;;;;5046335;28;20218;-73
2023/03/09 02:29:56;;;;;;;10.90;7.90;;;-0.80;59.70;;;;;;5041964;28;20179;-71
2023/03/09 02:32:22;;;;;;;8.60;6.28;;;-0.90;58.00;;;;;;5041395;28;20219;-68
2023/03/09 02:34:48;;;;;;;7.45;6.22;;;-0.90;60.30;;;;;;5037673;28;20191;-72
2023/03/09 02:37:35;;;;;;;11.20;7.70;;;-0.90;60.90;;;;;;5043272;28;20186;-72
2023/03/09 02:40:21;;;;;;;12.20;7.88;;;-0.90;64.00;;;;;;5040501;28;20425;-73
2023/03/09 02:42:50;;;;;;;12.00;7.40;;;-0.90;64.00;;;;;;5040906;28;20175;-73
2023/03/09 02:45:19;;;;;;;10.10;6.75;;;-0.90;65.60;;;;;;5038718;28;20198;-68
2023/03/09 02:47:46;;;;;;;11.90;7.82;;;-0.90;66.20;;;;;;5036298;28;20594;-70
2023/03/09 02:50:12;;;;;;;9.15;7.00;;;-0.90;67.70;;;;;;5039901;28;21144;-71
2023/03/09 02:52:38;;;;;;;10.40;8.23;;;-0.90;69.70;;;;;;5039344;28;20202;-72
2023/03/09 02:55:04;;;;;;;7.80;6.17;;;-0.90;69.90;;;;;;5037779;28;20732;-70
2023/03/09 02:57:30;;;;;;;8.93;7.05;;;-0.90;72.20;;;;;;5030468;28;20668;-72
2023/03/09 02:59:55;;;;;;;10.83;7.90;;;-0.80;74.90;;;;;;5037836;28;20191;-71
2023/03/09 03:02:21;;;;;;;9.87;8.17;;;-0.80;76.80;;;;;;5037441;28;20187;-72
2023/03/09 03:04:47;;;;;;;13.00;7.33;;;-0.80;74.20;;;;;;5039683;28;20242;-72
2023/03/09 03:07:13;;;;;;;9.50;7.03;;;-0.80;81.40;;;;;;5038898;28;20182;-69
2023/03/09 03:09:39;;;;;;;8.27;7.17;;;-0.80;83.80;;;;;;5039289;28;20685;-72
2023/03/09 03:12:05;;;;;;;9.07;7.33;;;-0.80;87.20;;;;;;5036857;28;20248;-73
2023/03/09 03:14:31;;;;;;;7.88;6.45;;;-0.70;87.20;;;;;;5039096;28;20260;-67
2023/03/09 03:16:56;;;;;;;8.40;6.93;;;-0.80;87.20;;;;;;5040596;28;20678;-72
2023/03/09 03:19:23;;;;;;;12.77;8.20;;;-0.70;87.30;;;;;;5033951;28;20402;-67
2023/03/09 03:21:48;;;;;;;7.90;6.55;;;-0.70;87.40;;;;;;5051671;28;20293;-72
2023/03/09 03:24:15;;;;;;;8.37;6.90;;;-0.70;87.20;;;;;;5053294;28;20265;-72
2023/03/09 03:26:41;;;;;;;7.85;7.05;;;-0.70;87.30;;;;;;5051980;28;20183;-72
2023/03/09 03:29:07;;;;;;;11.60;7.90;;;-0.70;87.20;;;;;;5034328;28;20179;-72
2023/03/09 03:31:33;;;;;;;10.10;7.03;;;-0.70;87.30;;;;;;5034276;28;20179;-72
2023/03/09 03:34:00;;;;;;;13.82;8.57;;;-0.70;87.20;;;;;;5051424;28;20179;-67
2023/03/09 03:36:25;;;;;;;15.10;8.43;;;-0.70;87.20;;;;;;5052499;28;20218;-68
2023/03/09 03:38:51;;;;;;;12.57;7.00;;;-0.60;87.30;;;;;;5053131;28;20201;-72
2023/03/09 03:41:17;;;;;;;8.60;7.13;;;-0.60;87.30;;;;;;5053155;28;20409;-66
2023/03/09 03:43:43;;;;;;;8.27;7.37;;;-0.60;87.30;;;;;;5054015;28;20582;-68
2023/03/09 03:46:08;;;;;;;11.40;7.73;;;-0.60;87.30;;;;;;5052542;28;20602;-72
2023/03/09 03:48:34;;;;;;;11.27;7.20;;;-0.60;87.30;;;;;;5037203;28;20429;-72
2023/03/09 03:51:00;;;;;;;9.30;6.70;;;-0.60;87.30;;;;;;5031097;28;20582;-72
2023/03/09 03:53:25;;;;;;;8.40;5.83;;;-0.60;87.30;;;;;;5036311;28;20203;-67
2023/03/09 03:55:51;;;;;;;7.43;6.73;;;-0.60;87.30;;;;;;5042258;28;20195;-71
2023/03/09 03:58:17;;;;;;;12.47;8.07;;;-0.50;87.80;;;;;;5045097;28;20181;-72
2023/03/09 04:00:42;;;;;;;12.00;6.73;;;-0.50;88.20;;;;;;5047327;28;20536;-73
2023/03/09 04:03:08;;;;;;;7.67;6.93;;;-0.50;88.40;;;;;;5040202;28;20190;-72
2023/03/09 04:05:34;;;;;;;10.43;7.20;;;-0.50;91.70;;;;;;5036962;28;20191;-67
2023/03/09 04:08:00;;;;;;;8.17;6.80;;;-0.50;92.80;;;;;;5037548;28;20694;-73
2023/03/09 04:10:25;;;;;;;10.30;7.70;;;-0.50;92.90;;;;;;5039087;28;20174;-72
2023/03/09 04:12:52;;;;;;;9.00;6.97;;;-0.50;92.90;;;;;;5036430;28;20220;-72
2023/03/09 04:15:17;;;;;;;13.05;8.20;;;-0.50;93.30;;;;;;5036693;28;20671;-72
2023/03/09 04:17:43;;;;;;;8.70;7.03;;;-0.50;95.10;;;;;;5037902;28;20190;-68
2023/03/09 04:20:09;;;;;;;10.10;7.77;;;-0.50;94.40;;;;;;5036455;28;20188;-67
2023/03/09 04:22:35;;;;;;;13.65;8.23;;;-0.50;93.90;;;;;;5037986;28;20183;-72
2023/03/09 04:25:01;;;;;;;13.27;7.93;;;-0.50;94.50;;;;;;5038152;28;20699;-72
2023/03/09 04:27:27;;;;;;;8.82;7.50;;;-0.50;94.10;;;;;;5036636;28;20460;-72
2023/03/09 04:29:53;;;;;;;8.63;6.07;;;-0.50;94.60;;;;;;5039272;28;21526;-69
2023/03/09 04:32:18;;;;;;;9.87;7.43;;;-0.50;94.20;;;;;;5037187;28;20205;-72
2023/03/09 04:34:44;;;;;;;8.13;6.50;;;-0.50;95.60;;;;;;5036504;28;20340;-67
2023/03/09 04:37:11;;;;;;;8.40;7.30;;;-0.50;96.20;;;;;;5042192;28;20171;-73
2023/03/09 04:39:37;;;;;;;7.78;5.63;;;-0.50;96.20;;;;;;5042298;28;20175;-72
2023/03/09 04:42:03;;;;;;;7.30;6.60;;;-0.50;96.30;;;;;;5040304;28;20194;-71
2023/03/09 04:44:29;;;;;;;8.17;5.90;;;-0.50;95.80;;;;;;5037519;28;20187;-70
2023/03/09 04:46:54;;;;;;;9.37;6.70;;;-0.50;96.00;;;;;;5037827;28;20228;-72
2023/03/09 04:49:20;;;;;;;6.10;5.23;;;-0.50;96.60;;;;;;5034730;28;20228;-72
2023/03/09 04:51:46;;;;;;;9.13;6.40;;;-0.50;97.00;;;;;;5036474;28;20260;-69
2023/03/09 04:54:11;;;;;;;9.10;6.30;;;-0.50;97.30;;;;;;5047334;28;20206;-67
2023/03/09 04:56:37;;;;;;;7.80;6.93;;;-0.50;96.70;;;;;;5039233;28;20199;-68
2023/03/09 04:59:03;;;;;;;6.77;6.00;;;-0.50;96.70;;;;;;5038358;28;20232;-72
2023/03/09 05:01:28;;;;;;;7.13;5.40;;;-0.50;95.50;;;;;;5045543;28;20178;-68
2023/03/09 05:03:54;;;;;;;8.07;5.53;;;-0.50;95.80;;;;;;5042684;28;20210;-71
2023/03/09 05:06:20;;;;;;;18.80;7.23;;;-0.60;95.00;;;;;;5048543;28;20210;-71
2023/03/09 05:08:46;;;;;;;7.53;6.60;;;-0.60;94.70;;;;;;5046600;28;20175;-67
2023/03/09 05:11:12;;;;;;;9.63;7.32;;;-0.60;95.00;;;;;;5043311;28;20199;-72
2023/03/09 05:13:38;;;;;;;9.77;6.27;;;-0.60;94.40;;;;;;5049423;28;20264;-66
2023/03/09 05:16:07;;;;;;;8.00;6.63;;;-0.60;93.50;;;;;;5038239;28;20263;-72
2023/03/09 05:18:34;;;;;;;8.43;5.95;;;-0.70;91.50;;;;;;5039357;28;20187;-72
2023/03/09 05:21:05;;;;;;;9.55;6.70;;;-0.70;89.90;;;;;;5055034;28;20607;-72
2023/03/09 05:23:30;;;;;;;7.45;5.13;;;-0.70;87.20;;;;;;5057879;28;20643;-72
2023/03/09 05:26:06;;;;;;;7.93;5.73;;;-0.70;87.30;;;;;;5058366;28;20214;-72
2023/03/09 05:28:33;;;;;;;9.38;7.00;;;-0.70;87.30;;;;;;5059265;28;20597;-67
2023/03/09 05:30:59;;;;;;;7.32;6.28;;;-0.80;87.10;;;;;;5058106;28;20247;-67
2023/03/09 05:33:25;;;;;;;7.57;6.33;;;-0.80;87.30;;;;;;5059108;28;20652;-66
2023/03/09 05:35:51;;;;;;;6.37;5.73;;;-0.80;87.20;;;;;;5058181;28;20202;-67
2023/03/09 05:38:17;;;;;;;7.67;6.50;;;-0.80;87.10;;;;;;5059424;28;20186;-73
2023/03/09 05:40:43;;;;;;;9.90;6.38;;;-0.80;87.20;;;;;;5056715;28;20421;-73
2023/03/09 05:43:10;;;;;;;9.35;6.15;;;-0.80;87.10;;;;;;5058924;28;20198;-66
2023/03/09 05:45:36;;;;;;;8.45;5.95;;;-0.80;87.20;;;;;;5045331;28;20198;-73
2023/03/09 05:48:02;;;;;;;16.73;6.87;;;-0.90;87.10;;;;;;5047295;28;20183;-67
2023/03/09 05:50:28;;;;;;;7.13;5.70;;;-0.90;87.10;;;;;;5043296;28;20190;-71
2023/03/09 05:52:54;;;;;;;9.15;7.32;;;-0.90;87.00;;;;;;5047357;28;20454;-71
2023/03/09 05:55:19;;;;;;;8.27;6.37;;;-1.00;87.00;;;;;;5043208;28;20207;-70
2023/03/09 05:57:45;;;;;;;8.37;7.37;;;-1.00;87.10;;;;;;5047728;28;20686;-72
2023/03/09 06:00:12;;;;;;;8.38;6.30;;;-1.00;87.00;;;;;;5043693;28;20867;-67
2023/03/09 06:02:37;;;;;;;8.75;6.28;;;-1.10;86.90;;;;;;5042730;28;20183;-72
2023/03/09 06:05:03;;;;;;;8.37;6.80;;;-1.10;86.90;;;;;;5041426;28;20273;-68
2023/03/09 06:07:30;;;;;;;11.77;6.05;;;-1.10;87.00;;;;;;5043414;28;20430;-72
2023/03/09 06:09:56;;;;;;;13.02;7.18;;;-1.10;87.00;;;;;;5058630;28;20563;-66
2023/03/09 06:12:22;;;;;;;10.13;5.93;;;-1.10;86.90;;;;;;5057117;28;20213;-72
2023/03/09 06:14:48;;;;;;;11.75;7.13;;;-1.10;87.10;;;;;;5038046;28;20850;-67
2023/03/09 06:17:15;;;;;;;11.02;8.27;;;-1.10;86.90;;;;;;5035706;28;20164;-66
2023/03/09 06:19:40;;;;;;;13.15;7.63;;;-1.10;87.00;;;;;;5039721;28;20233;-71
2023/03/09 06:22:06;;;;;;;7.60;6.27;;;-1.10;87.00;;;;;;5036504;28;20586;-67
2023/03/09 06:24:32;;;;;;;9.30;7.20;;;-1.00;87.00;;;;;;5054451;28;20206;-72
2023/03/09 06:26:58;;;;;;;11.83;7.90;;;-0.90;87.10;;;;;;5054631;28;20218;-67
2023/03/09 06:29:25;;;;;;;8.93;6.90;;;-0.90;87.20;;;;;;5046115;28;20182;-72
2023/03/09 06:31:51;;;;;;;10.85;7.35;;;-0.80;87.10;;;;;;5035308;28;20190;-69
2023/03/09 06:34:17;;;;;;;10.70;7.60;;;-0.80;87.20;;;;;;5033671;28;20699;-73
2023/03/09 06:36:43;;;;;;;8.20;6.90;;;-0.70;90.80;;;;;;5034902;28;20775;-71
2023/03/09 06:39:09;;;;;;;9.77;8.77;;;-0.60;93.60;;;;;;5050022;28;20182;-67
2023/03/09 06:41:36;;;;;;;12.57;6.80;;;-0.60;95.10;;;;;;5044131;28;20257;-67
2023/03/09 06:44:02;;;;;;;9.90;8.00;;;-0.50;97.10;;;;;;5046191;28;20261;-72
2023/03/09 06:46:28;;;;;;;11.23;7.25;;;-0.40;97.00;;;;;;5035663;28;20231;-67
2023/03/09 06:48:54;;;;;;;14.30;8.33;;;-0.40;98.90;;;;;;5042583;28;20228;-73
2023/03/09 06:51:20;;;;;;;12.55;7.82;;;-0.30;99.50;;;;;;5046564;28;20429;-72
2023/03/09 06:53:46;;;;;;;8.98;7.03;;;-0.30;99.90;;;;;;5054568;28;20245;-69
2023/03/09 06:56:12;;;;;;;10.47;8.00;;;-0.20;99.90;;;;;;5050015;28;20250;-72
2023/03/09 06:58:38;;;;;;;12.60;9.07;;;-0.10;99.90;;;;;;5040400;28;20597;-72
2023/03/09 07:01:12;;;;;;;12.50;7.53;;;-0.10;99.90;;;;;;5033685;28;20178;-67
2023/03/09 07:03:39;;;;;;;8.25;6.60;;;-0.20;99.90;;;;;;5032765;28;20430;-68
2023/03/09 07:06:05;;;;;;;16.80;7.93;;;-0.10;99.90;;;;;;5039189;28;20726;-67
2023/03/09 07:08:31;;;;;;;13.05;7.65;;;0.00;99.90;;;;;;5048073;28;20607;-72
2023/03/09 07:10:57;;;;;;;11.90;7.33;;;0.00;99.90;;;;;;5039996;28;20215;-72
2023/03/09 07:13:23;;;;;;;14.63;7.90;;;0.10;99.90;;;;;;5033958;28;20229;-72
2023/03/09 07:15:49;;;;;;;9.53;7.63;;;0.20;99.90;;;;;;5045703;28;20532;-68
2023/03/09 07:18:15;;;;;;;13.82;8.32;;;0.30;99.90;;;;;;5034542;28;20394;-72
2023/03/09 07:20:41;;;;;;;6.63;6.03;;;0.40;99.90;;;;;;5037791;28;20175;-67
2023/03/09 12:00:37;;;;;;;11.10;7.70;;;7.10;1.00;;;;;;5069555;28;20535;-73
2023/03/09 12:03:08;;;;;;;7.83;6.13;;;6.90;1.00;;;;;;5057877;28;20421;-68
2023/03/09 12:05:38;;;;;;;11.80;6.47;;;6.90;1.00;;;;;;5041657;28;20426;-76
2023/03/09 12:08:20;;;;;;;8.70;7.07;;;7.00;1.00;;;;;;5038545;28;20996;-75
2023/03/09 12:11:00;;;;;;;9.30;6.20;;;7.00;1.00;;;;;;5050206;28;20403;-68
2023/03/09 12:13:35;;;;;;;7.30;6.60;;;7.00;1.00;;;;;;5034794;28;20453;-75
2023/03/09 12:16:04;;;;;;;15.17;8.20;;;6.90;1.00;;;;;;5029392;28;20914;-69
2023/03/09 12:18:33;;;;;;;10.93;6.83;;;6.90;1.00;;;;;;5026694;28;20495;-68
2023/03/09 12:21:03;;;;;;;8.90;5.93;;;6.90;1.00;;;;;;5030238;28;20763;-75
2023/03/09 12:23:35;;;;;;;7.97;6.77;;;6.80;1.00;;;;;;5028162;28;20453;-68
2023/03/09 12:26:04;;;;;;;8.97;7.20;;;6.60;1.00;;;;;;5029217;28;20410;-71
2023/03/09 12:28:30;;;;;;;8.80;6.53;;;6.70;1.00;;;;;;5032102;28;20474;-75
2023/03/09 12:30:57;;;;;;;11.10;6.30;;;7.10;1.00;;;;;;5029040;28;20469;-68
2023/03/09 12:33:41;;;;;;;10.60;8.60;;;7.80;1.00;;;;;;5029671;28;20420;-73
2023/03/09 12:36:34;;;;;;;11.37;5.60;;;8.60;1.00;;;;;;5026721;28;20458;-76
2023/03/09 12:39:22;;;;;;;7.33;5.53;;;9.60;1.00;;;;;;5026919;28;20436;-67
2023/03/09 12:42:07;;;;;;;7.53;6.07;;;10.20;1.00;;;;;;5028816;28;20921;-73
2023/03/09 12:44:44;;;;;;;7.73;5.53;;;10.90;1.00;;;;;;5028895;28;20390;-67
2023/03/09 12:47:33;;;;;;;9.50;6.30;;;11.30;1.00;;;;;;5027714;28;20418;-67
2023/03/09 12:50:00;;;;;;;6.43;5.73;;;11.70;1.00;;;;;;5043864;28;20433;-67
2023/03/09 12:53:06;;;;;;;6.73;5.90;;;12.40;1.00;;;;;;5031726;28;20414;-67
2023/03/09 12:55:35;;;;;;;7.00;6.30;;;12.60;1.00;;;;;;5026847;28;20451;-73
2023/03/09 12:58:20;;;;;;;7.80;6.07;;;12.50;1.00;;;;;;5033974;28;20512;-68
2023/03/09 13:01:08;;;;;;;7.40;5.77;;;12.60;1.00;;;;;;5042369;28;20808;-68
2023/03/09 13:03:45;;;;;;;7.80;5.57;;;12.60;1.00;;;;;;5028748;28;20477;-68
2023/03/09 13:06:32;;;;;;;6.83;6.13;;;12.50;1.00;;;;;;5027421;28;20438;-68
2023/03/09 13:09:03;;;;;;;11.60;9.63;;;12.70;1.00;;;;;;5037017;28;20579;-72
2023/03/09 13:11:37;;;;;;;6.03;5.40;;;12.30;1.00;;;;;;5026698;28;20923;-72
2023/03/09 13:14:15;;;;;;;6.70;5.30;;;11.60;1.00;;;;;;5015982;28;20771;-74
2023/03/09 13:16:44;;;;;;;24.20;15.90;;;10.90;1.00;;;;;;5015066;28;20435;-75
2023/03/09 13:19:18;;;;;;;10.70;7.40;;;10.40;99.90;;;;;;5014079;28;20425;-75
2023/03/09 13:22:09;;;;;;;5.97;5.37;;;10.10;1.00;;;;;;5012733;28;20763;-69
2023/03/09 13:24:40;;;;;;;6.27;5.60;;;9.90;99.90;;;;;;5016761;28;20408;-75
2023/03/09 13:27:08;;;;;;;6.37;5.40;;;9.70;99.90;;;;;;5014718;28;20942;-69
2023/03/09 13:29:37;;;;;;;6.33;5.10;;;9.50;99.90;;;;;;5015757;28;20491;-74
2023/03/09 13:32:05;;;;;;;7.63;6.83;;;9.10;99.90;;;;;;5026544;28;20515;-69
2023/03/09 13:34:36;;;;;;;7.63;6.90;;;9.00;99.90;;;;;;5033023;28;20403;-69
2023/03/09 13:37:06;;;;;;;11.87;6.40;;;8.90;99.90;;;;;;5020502;28;20449;-74
2023/03/09 13:39:33;;;;;;;12.33;9.50;;;8.70;99.90;;;;;;5016632;28;21045;-74
2023/03/09 13:42:03;;;;;;;8.30;6.53;;;8.40;99.90;;;;;;5015228;28;20427;-69
2023/03/09 13:44:30;;;;;;;6.50;5.90;;;8.30;99.90;;;;;;5014537;28;20417;-70
2023/03/09 13:46:58;;;;;;;8.67;5.90;;;8.30;99.90;;;;;;5013668;28;20437;-70
2023/03/09 13:49:30;;;;;;;7.57;6.70;;;8.30;99.90;;;;;;5018714;28;20437;-70
2023/03/09 13:51:59;;;;;;;7.93;6.73;;;8.30;99.90;;;;;;5015171;28;20792;-69
2023/03/09 13:54:31;;;;;;;8.63;7.07;;;8.30;99.90;;;;;;5046144;28;20966;-74
2023/03/09 13:56:59;;;;;;;7.83;6.27;;;8.30;99.90;;;;;;5015042;28;20823;-70
2023/03/09 13:59:30;;;;;;;7.27;6.53;;;8.30;99.90;;;;;;5017794;28;20554;-75
2023/03/09 14:02:01;;;;;;;6.87;6.17;;;8.30;99.90;;;;;;5018130;28;20424;-69
2023/03/09 14:04:27;;;;;;;7.40;6.33;;;8.30;99.90;;;;;;5010714;28;20413;-70
2023/03/09 14:06:55;;;;;;;6.53;5.93;;;8.20;99.90;;;;;;5033060;28;20528;-69
2023/03/09 14:09:35;;;;;;;8.83;6.70;;;8.10;99.90;;;;;;5024160;28;20437;-75
2023/03/09 14:12:03;;;;;;;19.57;7.30;;;8.00;99.90;;;;;;5014985;28;20499;-76
2023/03/09 14:14:29;;;;;;;6.97;6.30;;;7.70;99.90;;;;;;5012965;28;20462;-76
2023/03/09 14:16:55;;;;;;;7.90;7.10;;;7.60;99.90;;;;;;5026200;28;20459;-75
2023/03/09 14:19:27;;;;;;;8.63;7.80;;;7.60;99.90;;;;;;5027523;28;20485;-69
2023/03/09 14:21:55;;;;;;;7.63;6.83;;;7.60;99.90;;;;;;5015088;28;20517;-69
2023/03/09 14:24:29;;;;;;;7.20;6.23;;;7.60;99.90;;;;;;5011951;28;20442;-69
2023/03/09 14:26:55;;;;;;;13.30;8.80;;;7.60;99.90;;;;;;5045614;28;20542;-75
2023/03/09 14:29:26;;;;;;;8.50;7.50;;;7.50;99.90;;;;;;5012487;28;20521;-74
2023/03/09 14:32:24;;;;;;;7.00;6.40;;;7.50;99.90;;;;;;5011409;28;20184;-69
2023/03/09 14:34:55;;;;;;;6.13;5.63;;;7.50;99.90;;;;;;5013730;28;20519;-75
2023/03/09 14:37:29;;;;;;;11.07;6.87;;;7.30;99.90;;;;;;5014309;28;20434;-69
2023/03/09 14:40:00;;;;;;;8.30;6.33;;;7.30;99.90;;;;;;5010791;28;20462;-69
2023/03/09 14:42:34;;;;;;;8.17;7.37;;;6.90;99.90;;;;;;5013004;28;20434;-69
2023/03/09 14:45:14;;;;;;;7.73;7.03;;;6.80;99.90;;;;;;5013046;28;20438;-69
2023/03/09 14:47:41;;;;;;;6.50;5.90;;;6.80;99.90;;;;;;5014199;28;20411;-75
2023/03/09 14:50:15;;;;;;;10.37;7.30;;;6.80;99.90;;;;;;5013699;28;20434;-75
2023/03/09 14:52:40;;;;;;;15.20;9.50;;;6.80;99.90;;;;;;5011959;28;20463;-69
2023/03/09 14:55:22;;;;;;;8.13;7.20;;;6.80;99.90;;;;;;5013103;28;20517;-74
2023/03/09 14:57:48;;;;;;;8.50;7.33;;;6.80;99.90;;;;;;5011552;28;20507;-75
2023/03/09 15:00:19;;;;;;;11.03;7.33;;;6.70;99.90;;;;;;5012976;28;20458;-70
2023/03/09 15:02:47;;;;;;;11.60;6.63;;;6.50;99.90;;;;;;5014429;28;20430;-69
2023/03/09 15:05:14;;;;;;;8.47;6.70;;;6.50;99.90;;;;;;5011137;28;20462;-75
2023/03/09 15:07:40;;;;;;;10.90;6.63;;;6.60;99.90;;;;;;5012660;28;20422;-75
2023/03/09 15:10:06;;;;;;;7.37;6.63;;;6.50;99.90;;;;;;5011912;28;20777;-75
2023/03/09 15:12:32;;;;;;;16.47;8.20;;;6.60;99.90;;;;;;5017722;28;20184;-75
2023/03/09 15:14:58;;;;;;;8.60;7.73;;;6.50;99.90;;;;;;5023492;28;21893;-69
2023/03/09 15:17:23;;;;;;;9.60;8.60;;;6.50;99.90;;;;;;5020160;28;20808;-70
2023/03/09 15:19:50;;;;;;;8.63;7.80;;;6.30;99.90;;;;;;5011839;28;20255;-75
2023/03/09 15:22:19;;;;;;;9.73;7.80;;;5.90;99.90;;;;;;5013454;28;20696;-70
2023/03/09 15:24:44;;;;;;;6.97;6.33;;;5.90;1.00;;;;;;5012054;28;20916;-71
2023/03/09 15:27:10;;;;;;;6.90;6.20;;;5.80;99.90;;;;;;5012399;28;20498;-71
2023/03/09 15:29:37;;;;;;;10.73;8.33;;;5.90;99.90;;;;;;5009996;28;20200;-70
2023/03/09 15:32:07;;;;;;;10.90;8.93;;;5.90;99.90;;;;;;5014380;28;20429;-74
2023/03/09 15:34:37;;;;;;;10.73;9.30;;;5.40;1.00;;;;;;5016623;28;20435;-75
2023/03/09 15:37:03;;;;;;;16.13;8.80;;;5.20;1.00;;;;;;5010297;28;20520;-75
2023/03/09 15:39:29;;;;;;;12.53;9.10;;;5.10;1.00;;;;;;5011148;28;20997;-75
2023/03/09 15:41:55;;;;;;;15.27;9.30;;;5.00;1.00;;;;;;5012257;28;20429;-75
2023/03/09 15:44:21;;;;;;;12.00;9.30;;;4.90;1.00;;;;;;5042923;28;20266;-74
2023/03/09 15:46:47;;;;;;;10.33;8.40;;;4.90;1.00;;;;;;5018362;28;20447;-75
2023/03/09 15:49:13;;;;;;;11.20;9.20;;;5.00;1.00;;;;;;5012445;28;20272;-75
2023/03/09 15:51:38;;;;;;;13.83;9.00;;;4.90;1.00;;;;;;5012977;28;20853;-75
2023/03/09 15:54:05;;;;;;;9.77;8.53;;;4.80;1.00;;;;;;5012177;28;20207;-75
2023/03/09 15:56:32;;;;;;;12.03;8.13;;;4.70;1.00;;;;;;5012629;28;20565;-74
2023/03/09 15:58:58;;;;;;;9.97;8.90;;;4.70;1.00;;;;;;5009881;28;20459;-75
2023/03/09 16:01:24;;;;;;;9.90;7.90;;;4.50;1.00;;;;;;5013179;28;20406;-75
2023/03/09 16:03:51;;;;;;;12.97;8.87;;;4.50;1.00;;;;;;5011893;28;20427;-75
2023/03/09 16:06:19;;;;;;;11.83;9.50;;;4.50;1.00;;;;;;5017164;28;20514;-75
2023/03/09 16:08:45;;;;;;;10.53;9.10;;;4.60;1.00;;;;;;5017494;28;20427;-74
2023/03/09 16:11:11;;;;;;;14.50;9.70;;;4.60;1.00;;;;;;5012442;28;20393;-76
2023/03/09 16:13:38;;;;;;;12.07;8.43;;;4.60;1.00;;;;;;5012355;28;20514;-75
2023/03/09 16:16:05;;;;;;;10.67;8.03;;;4.70;1.00;;;;;;5028884;28;20485;-75
2023/03/09 16:18:31;;;;;;;9.90;8.50;;;4.70;1.00;;;;;;5017973;28;20777;-75
2023/03/09 16:21:00;;;;;;;12.67;9.10;;;4.60;1.00;;;;;;5012423;28;20431;-75
2023/03/09 16:23:25;;;;;;;17.77;9.33;;;4.70;1.00;;;;;;5010812;28;20851;-75
2023/03/09 16:25:53;;;;;;;10.30;8.93;;;4.60;1.00;;;;;;5012092;28;20502;-76
2023/03/09 16:28:19;;;;;;;9.93;8.67;;;4.40;1.00;;;;;;5010559;28;20642;-75
2023/03/09 16:30:45;;;;;;;10.57;8.60;;;4.30;1.00;;;;;;5012504;28;20408;-75
2023/03/09 16:33:11;;;;;;;13.13;9.53;;;4.30;1.00;;;;;;5012699;28;20991;-76
2023/03/09 16:35:36;;;;;;;10.00;8.07;;;4.40;1.00;;;;;;5012735;28;20232;-75
2023/03/09 16:38:03;;;;;;;15.40;9.07;;;4.40;1.00;;;;;;5017611;28;20277;-76
2023/03/09 16:40:28;;;;;;;12.67;8.40;;;4.40;1.00;;;;;;5011799;28;20718;-76
2023/03/09 16:42:54;;;;;;;11.77;9.00;;;4.30;1.00;;;;;;5011390;28;20527;-76
2023/03/09 16:45:20;;;;;;;18.17;9.33;;;4.20;1.00;;;;;;5011338;28;20194;-77
2023/03/09 16:47:46;;;;;;;11.40;8.83;;;4.10;1.00;;;;;;5016724;28;20176;-76
2023/03/09 16:50:15;;;;;;;9.63;7.40;;;4.10;1.00;;;;;;5016445;28;20401;-67
2023/03/09 16:52:41;;;;;;;19.43;7.90;;;3.90;1.00;;;;;;5013270;28;20430;-67
2023/03/09 16:55:10;;;;;;;9.50;6.70;;;3.90;1.00;;;;;;5015293;28;20509;-74
2023/03/09 16:57:36;;;;;;;15.20;6.87;;;3.90;1.00;;;;;;5013835;28;20519;-75
2023/03/09 17:00:04;;;;;;;10.90;8.23;;;3.80;1.00;;;;;;5014240;28;20553;-73
2023/03/09 17:02:31;;;;;;;9.20;7.73;;;3.80;1.00;;;;;;5009819;28;20848;-73
2023/03/09 17:04:57;;;;;;;9.27;7.70;;;3.70;1.00;;;;;;5013459;28;20435;-73
2023/03/09 17:07:24;;;;;;;11.60;7.23;;;3.70;1.00;;;;;;5033412;28;20436;-75
2023/03/09 17:09:49;;;;;;;11.03;9.30;;;3.70;1.00;;;;;;5016468;28;20486;-75
2023/03/09 17:12:16;;;;;;;8.70;7.37;;;3.80;1.00;;;;;;5011549;28;20444;-75
2023/03/09 17:14:42;;;;;;;11.10;7.80;;;3.90;1.00;;;;;;5013013;28;20444;-75
2023/03/09 17:17:09;;;;;;;14.20;8.10;;;3.90;1.00;;;;;;5015990;28;20447;-75
2023/03/09 17:19:35;;;;;;;16.47;9.00;;;4.00;1.00;;;;;;5015509;28;20450;-74
2023/03/09 17:22:01;;;;;;;8.73;7.93;;;3.90;1.00;;;;;;5024975;28;20440;-75
2023/03/09 17:24:33;;;;;;;13.43;9.13;;;4.00;1.00;;;;;;5034699;28;20394;-75
2023/03/09 17:26:58;;;;;;;14.97;9.00;;;3.90;1.00;;;;;;5019532;28;20960;-75
2023/03/09 17:29:25;;;;;;;14.13;8.47;;;3.90;1.00;;;;;;5015711;28;20457;-74
2023/03/09 17:31:51;;;;;;;14.17;9.37;;;3.90;1.00;;;;;;5015966;28;20883;-75